Terminal Aerodrome Forecast
Issued by NWS Twin Cities, MN

Home | Current Version | Previous Version | Text Only | Print | Product List | Glossary On
Versions: 1 2 3 4 5 6 7 8 9 10 11 12 13 14 15 16 17 18 19 20 21
179
FTUS43 KMPX 261120
TAFEAU
TAF
KEAU 261120Z 2612/2712 20004KT 6SM -SHRA BKN070
     FM261230 22004KT P6SM BKN150
     FM261700 24007KT P6SM FEW250
     FM270200 VRB03KT P6SM VCSH SCT080 BKN120
     FM270600 13004KT P6SM VCSH BKN070=

USA.gov is the U.S. government's official web portal to all federal, state and local government web resources and services.